sensor_id;sensor_type;location;lat;lon;timestamp;pressure;altitude;pressure_sealevel;temperature;humidity
75692;BME280;64307;52.508;6.090;2023-04-04T00:00:24;103143.25;;;3.00;73.79
75692;BME280;64307;52.508;6.090;2023-04-04T00:02:50;103147.66;;;3.01;74.63
75692;BME280;64307;52.508;6.090;2023-04-04T00:05:15;103157.50;;;3.07;74.24
75692;BME280;64307;52.508;6.090;2023-04-04T00:07:41;103147.16;;;2.94;74.69
75692;BME280;64307;52.508;6.090;2023-04-04T00:10:07;103145.56;;;2.88;75.16
75692;BME280;64307;52.508;6.090;2023-04-04T00:12:32;103148.91;;;2.85;75.73
75692;BME280;64307;52.508;6.090;2023-04-04T00:14:57;103144.81;;;2.82;74.86
75692;BME280;64307;52.508;6.090;2023-04-04T00:17:25;103137.09;;;2.84;75.75
75692;BME280;64307;52.508;6.090;2023-04-04T00:19:51;103101.81;;;2.63;75.61
75692;BME280;64307;52.508;6.090;2023-04-04T00:22:16;103136.34;;;2.74;75.79
75692;BME280;64307;52.508;6.090;2023-04-04T00:24:43;103131.91;;;2.78;75.79
75692;BME280;64307;52.508;6.090;2023-04-04T00:27:08;103128.94;;;2.69;76.18
75692;BME280;64307;52.508;6.090;2023-04-04T00:29:33;103121.59;;;2.65;76.19
75692;BME280;64307;52.508;6.090;2023-04-04T00:31:59;103139.09;;;2.74;76.45
75692;BME280;64307;52.508;6.090;2023-04-04T00:34:25;103144.13;;;2.67;76.08
75692;BME280;64307;52.508;6.090;2023-04-04T00:36:50;103126.88;;;2.56;76.69
75692;BME280;64307;52.508;6.090;2023-04-04T00:39:16;103102.47;;;2.44;76.75
75692;BME280;64307;52.508;6.090;2023-04-04T00:41:43;103116.84;;;2.36;77.56
75692;BME280;64307;52.508;6.090;2023-04-04T00:44:08;103132.66;;;2.55;77.52
75692;BME280;64307;52.508;6.090;2023-04-04T00:46:35;103140.34;;;2.58;77.25
75692;BME280;64307;52.508;6.090;2023-04-04T00:49:00;103120.63;;;2.45;77.71
75692;BME280;64307;52.508;6.090;2023-04-04T00:51:26;103137.59;;;2.53;78.08
75692;BME280;64307;52.508;6.090;2023-04-04T00:53:51;103134.91;;;2.47;78.26
75692;BME280;64307;52.508;6.090;2023-04-04T00:56:17;103135.47;;;2.44;78.89
75692;BME280;64307;52.508;6.090;2023-04-04T00:58:43;103120.16;;;2.33;78.39
75692;BME280;64307;52.508;6.090;2023-04-04T01:01:09;103144.59;;;2.40;78.39
75692;BME280;64307;52.508;6.090;2023-04-04T01:03:35;103136.06;;;2.41;78.28
75692;BME280;64307;52.508;6.090;2023-04-04T01:06:02;103127.34;;;2.29;79.20
75692;BME280;64307;52.508;6.090;2023-04-04T01:08:28;103142.41;;;2.37;79.16
75692;BME280;64307;52.508;6.090;2023-04-04T01:10:54;103136.97;;;2.32;79.39
75692;BME280;64307;52.508;6.090;2023-04-04T01:13:19;103125.22;;;2.21;79.95
75692;BME280;64307;52.508;6.090;2023-04-04T01:15:45;103121.34;;;2.22;79.43
75692;BME280;64307;52.508;6.090;2023-04-04T01:18:12;103136.63;;;2.38;78.96
75692;BME280;64307;52.508;6.090;2023-04-04T01:21:02;103131.38;;;2.42;79.56
75692;BME280;64307;52.508;6.090;2023-04-04T01:23:46;103119.94;;;2.25;79.51
75692;BME280;64307;52.508;6.090;2023-04-04T01:26:16;103128.97;;;2.35;78.87
75692;BME280;64307;52.508;6.090;2023-04-04T01:28:42;103130.09;;;2.29;79.53
75692;BME280;64307;52.508;6.090;2023-04-04T01:31:09;103137.53;;;2.24;80.12
75692;BME280;64307;52.508;6.090;2023-04-04T01:33:42;103142.50;;;2.22;80.47
75692;BME280;64307;52.508;6.090;2023-04-04T01:36:15;103115.38;;;2.10;80.26
75692;BME280;64307;52.508;6.090;2023-04-04T01:39:04;103125.53;;;2.15;80.77
75692;BME280;64307;52.508;6.090;2023-04-04T01:41:33;103115.38;;;2.05;80.68
75692;BME280;64307;52.508;6.090;2023-04-04T01:43:59;103115.09;;;2.12;80.55
75692;BME280;64307;52.508;6.090;2023-04-04T01:46:25;103113.78;;;1.99;80.29
75692;BME280;64307;52.508;6.090;2023-04-04T01:48:51;103129.41;;;2.04;81.13
75692;BME280;64307;52.508;6.090;2023-04-04T01:51:16;103133.00;;;1.99;80.87
75692;BME280;64307;52.508;6.090;2023-04-04T01:53:43;103120.94;;;2.00;80.33
75692;BME280;64307;52.508;6.090;2023-04-04T01:56:09;103130.00;;;2.01;80.81
75692;BME280;64307;52.508;6.090;2023-04-04T01:58:34;103126.19;;;1.92;80.79
75692;BME280;64307;52.508;6.090;2023-04-04T02:00:59;103126.72;;;1.94;81.28
75692;BME280;64307;52.508;6.090;2023-04-04T02:03:25;103133.00;;;1.99;81.07
75692;BME280;64307;52.508;6.090;2023-04-04T02:05:51;103133.06;;;1.89;81.66
75692;BME280;64307;52.508;6.090;2023-04-04T02:08:17;103121.59;;;1.82;81.70
75692;BME280;64307;52.508;6.090;2023-04-04T02:10:42;103129.81;;;1.82;81.30
75692;BME280;64307;52.508;6.090;2023-04-04T02:13:07;103127.63;;;1.84;81.55
75692;BME280;64307;52.508;6.090;2023-04-04T02:15:33;103117.75;;;1.78;82.04
75692;BME280;64307;52.508;6.090;2023-04-04T02:17:59;103143.50;;;1.92;81.38
75692;BME280;64307;52.508;6.090;2023-04-04T02:20:25;103132.00;;;1.85;81.89
75692;BME280;64307;52.508;6.090;2023-04-04T02:22:54;103124.09;;;1.74;81.70
75692;BME280;64307;52.508;6.090;2023-04-04T02:25:22;103122.19;;;1.74;81.73
75692;BME280;64307;52.508;6.090;2023-04-04T02:27:48;103125.75;;;1.70;82.12
75692;BME280;64307;52.508;6.090;2023-04-04T02:30:13;103133.13;;;1.79;81.15
75692;BME280;64307;52.508;6.090;2023-04-04T02:32:39;103136.72;;;1.75;82.17
75692;BME280;64307;52.508;6.090;2023-04-04T02:35:04;103125.22;;;1.67;81.88
75692;BME280;64307;52.508;6.090;2023-04-04T02:37:30;103129.00;;;1.77;81.97
75692;BME280;64307;52.508;6.090;2023-04-04T02:39:56;103126.84;;;1.68;82.65
75692;BME280;64307;52.508;6.090;2023-04-04T02:42:21;103115.66;;;1.60;82.32
75692;BME280;64307;52.508;6.090;2023-04-04T02:44:48;103120.25;;;1.70;81.72
75692;BME280;64307;52.508;6.090;2023-04-04T02:47:13;103095.34;;;1.56;82.00
75692;BME280;64307;52.508;6.090;2023-04-04T02:49:39;103098.91;;;1.56;82.54
75692;BME280;64307;52.508;6.090;2023-04-04T02:52:04;103100.50;;;1.67;81.15
75692;BME280;64307;52.508;6.090;2023-04-04T02:54:29;103098.88;;;1.61;82.24
75692;BME280;64307;52.508;6.090;2023-04-04T02:56:55;103099.72;;;1.62;82.13
75692;BME280;64307;52.508;6.090;2023-04-04T02:59:21;103090.34;;;1.63;81.43
75692;BME280;64307;52.508;6.090;2023-04-04T03:01:46;103092.63;;;1.51;82.67
75692;BME280;64307;52.508;6.090;2023-04-04T03:04:11;103095.06;;;1.52;82.25
75692;BME280;64307;52.508;6.090;2023-04-04T03:06:38;103098.63;;;1.58;82.14
75692;BME280;64307;52.508;6.090;2023-04-04T03:09:04;103093.97;;;1.53;82.14
75692;BME280;64307;52.508;6.090;2023-04-04T03:11:30;103089.88;;;1.51;82.53
75692;BME280;64307;52.508;6.090;2023-04-04T03:13:55;103085.75;;;1.48;82.03
75692;BME280;64307;52.508;6.090;2023-04-04T03:16:21;103087.66;;;1.48;82.09
75692;BME280;64307;52.508;6.090;2023-04-04T03:18:48;103092.63;;;1.46;82.48
75692;BME280;64307;52.508;6.090;2023-04-04T03:21:13;103085.53;;;1.35;82.72
75692;BME280;64307;52.508;6.090;2023-04-04T03:23:40;103092.31;;;1.52;82.06
75692;BME280;64307;52.508;6.090;2023-04-04T03:26:07;103091.28;;;1.43;81.96
75692;BME280;64307;52.508;6.090;2023-04-04T03:28:32;103080.31;;;1.38;81.89
75692;BME280;64307;52.508;6.090;2023-04-04T03:31:02;103096.47;;;1.45;82.62
75692;BME280;64307;52.508;6.090;2023-04-04T03:33:28;103068.53;;;1.28;82.42
75692;BME280;64307;52.508;6.090;2023-04-04T03:35:53;103080.34;;;1.33;82.41
75692;BME280;64307;52.508;6.090;2023-04-04T03:38:18;103080.34;;;1.33;82.93
75692;BME280;64307;52.508;6.090;2023-04-04T03:40:43;103084.19;;;1.27;82.72
75692;BME280;64307;52.508;6.090;2023-04-04T03:43:09;103094.31;;;1.32;82.99
75692;BME280;64307;52.508;6.090;2023-04-04T03:45:34;103094.31;;;1.32;82.53
75692;BME280;64307;52.508;6.090;2023-04-04T03:48:00;103084.47;;;1.26;82.59
75692;BME280;64307;52.508;6.090;2023-04-04T03:50:26;103092.16;;;1.24;82.36
75692;BME280;64307;52.508;6.090;2023-04-04T03:52:51;103076.81;;;1.23;82.54
75692;BME280;64307;52.508;6.090;2023-04-04T03:55:16;103085.59;;;1.20;83.67
75692;BME280;64307;52.508;6.090;2023-04-04T03:57:42;103091.06;;;1.25;82.57
75692;BME280;64307;52.508;6.090;2023-04-04T04:00:08;103075.72;;;1.14;82.28
75692;BME280;64307;52.508;6.090;2023-04-04T04:02:33;103085.63;;;1.15;82.32
75692;BME280;64307;52.508;6.090;2023-04-04T04:04:58;103080.94;;;1.15;82.62
75692;BME280;64307;52.508;6.090;2023-04-04T04:07:23;103094.34;;;1.22;82.89
75692;BME280;64307;52.508;6.090;2023-04-04T04:09:49;103087.25;;;1.21;82.46
75692;BME280;64307;52.508;6.090;2023-04-04T04:12:15;103089.69;;;1.17;82.10
75692;BME280;64307;52.508;6.090;2023-04-04T04:14:40;103088.91;;;1.17;83.42
75692;BME280;64307;52.508;6.090;2023-04-04T04:17:06;103083.16;;;1.08;83.35
75692;BME280;64307;52.508;6.090;2023-04-04T04:19:31;103091.34;;;1.13;83.42
75692;BME280;64307;52.508;6.090;2023-04-04T04:21:57;103070.81;;;1.06;83.72
75692;BME280;64307;52.508;6.090;2023-04-04T04:24:22;103080.41;;;1.03;83.91
75692;BME280;64307;52.508;6.090;2023-04-04T04:26:47;103066.72;;;0.98;83.61
75692;BME280;64307;52.508;6.090;2023-04-04T04:29:13;103081.25;;;1.04;84.15
75692;BME280;64307;52.508;6.090;2023-04-04T04:31:38;103076.28;;;1.01;84.00
75692;BME280;64307;52.508;6.090;2023-04-04T04:34:06;103068.63;;;0.98;83.91
75692;BME280;64307;52.508;6.090;2023-04-04T04:36:33;103046.44;;;0.89;83.64
75692;BME280;64307;52.508;6.090;2023-04-04T04:38:58;103065.91;;;0.93;83.88
75692;BME280;64307;52.508;6.090;2023-04-04T04:41:24;103077.16;;;0.91;84.15
75692;BME280;64307;52.508;6.090;2023-04-04T04:43:49;103094.97;;;0.99;84.82
75692;BME280;64307;52.508;6.090;2023-04-04T04:46:15;103086.19;;;1.02;85.07
75692;BME280;64307;52.508;6.090;2023-04-04T04:48:40;103086.19;;;0.97;85.43
75692;BME280;64307;52.508;6.090;2023-04-04T04:51:05;103090.00;;;1.01;84.90
75692;BME280;64307;52.508;6.090;2023-04-04T04:53:31;103094.41;;;1.02;84.30
75692;BME280;64307;52.508;6.090;2023-04-04T04:55:56;103077.97;;;0.87;84.90
75692;BME280;64307;52.508;6.090;2023-04-04T04:58:22;103082.09;;;0.94;85.43
75692;BME280;64307;52.508;6.090;2023-04-04T05:00:54;103088.66;;;0.93;85.20
75692;BME280;64307;52.508;6.090;2023-04-04T05:03:20;103085.63;;;0.95;85.60
75692;BME280;64307;52.508;6.090;2023-04-04T05:05:45;103091.97;;;1.00;85.41
75692;BME280;64307;52.508;6.090;2023-04-04T05:08:11;103078.78;;;1.02;85.50
75692;BME280;64307;52.508;6.090;2023-04-04T05:10:36;103083.72;;;1.00;85.35
75692;BME280;64307;52.508;6.090;2023-04-04T05:13:02;103088.38;;;1.05;85.56
75692;BME280;64307;52.508;6.090;2023-04-04T05:15:28;103101.53;;;1.13;85.94
75692;BME280;64307;52.508;6.090;2023-04-04T05:17:53;103107.25;;;1.21;85.50
75692;BME280;64307;52.508;6.090;2023-04-04T05:20:19;103105.59;;;1.25;85.56
75692;BME280;64307;52.508;6.090;2023-04-04T05:22:45;103108.03;;;1.37;84.94
75692;BME280;64307;52.508;6.090;2023-04-04T05:25:11;103097.84;;;1.47;84.56
75692;BME280;64307;52.508;6.090;2023-04-04T05:27:37;103104.63;;;1.65;84.07
75692;BME280;64307;52.508;6.090;2023-04-04T05:30:03;103090.06;;;1.64;83.18
75692;BME280;64307;52.508;6.090;2023-04-04T05:32:29;103099.91;;;1.76;82.40
75692;BME280;64307;52.508;6.090;2023-04-04T05:34:54;103089.78;;;1.71;81.76
75692;BME280;64307;52.508;6.090;2023-04-04T05:37:19;103090.84;;;1.80;81.67
75692;BME280;64307;52.508;6.090;2023-04-04T05:39:45;103096.88;;;1.82;81.74
75692;BME280;64307;52.508;6.090;2023-04-04T05:42:10;103093.47;;;2.00;81.22
75692;BME280;64307;52.508;6.090;2023-04-04T05:44:35;103098.59;;;2.12;80.72
75692;BME280;64307;52.508;6.090;2023-04-04T05:47:01;103085.66;;;2.17;80.14
75692;BME280;64307;52.508;6.090;2023-04-04T05:49:27;103092.16;;;2.31;78.40
75692;BME280;64307;52.508;6.090;2023-04-04T05:51:52;103096.50;;;2.37;77.58
75692;BME280;64307;52.508;6.090;2023-04-04T05:54:21;103105.84;;;2.36;77.16
75692;BME280;64307;52.508;6.090;2023-04-04T05:56:46;103103.50;;;2.54;77.32
75692;BME280;64307;52.508;6.090;2023-04-04T05:59:12;103108.06;;;2.68;76.02
75692;BME280;64307;52.508;6.090;2023-04-04T06:01:37;103099.22;;;2.71;75.32
75692;BME280;64307;52.508;6.090;2023-04-04T06:04:04;103099.41;;;2.80;74.43
75692;BME280;64307;52.508;6.090;2023-04-04T06:06:30;103101.34;;;2.79;74.35
75692;BME280;64307;52.508;6.090;2023-04-04T06:08:57;103121.25;;;3.00;73.99
75692;BME280;64307;52.508;6.090;2023-04-04T06:11:22;103130.06;;;3.25;72.95
75692;BME280;64307;52.508;6.090;2023-04-04T06:13:49;103126.78;;;3.47;71.59
75692;BME280;64307;52.508;6.090;2023-04-04T06:16:18;103109.84;;;3.35;71.85
75692;BME280;64307;52.508;6.090;2023-04-04T06:18:43;103130.59;;;3.51;70.88
75692;BME280;64307;52.508;6.090;2023-04-04T06:21:09;103117.69;;;3.70;69.29
75692;BME280;64307;52.508;6.090;2023-04-04T06:23:34;103127.19;;;4.01;68.29
75692;BME280;64307;52.508;6.090;2023-04-04T06:26:01;103115.69;;;5.15;65.25
75692;BME280;64307;52.508;6.090;2023-04-04T06:28:27;103118.06;;;7.13;57.36
75692;BME280;64307;52.508;6.090;2023-04-04T06:30:52;103093.94;;;6.83;57.41
75692;BME280;64307;52.508;6.090;2023-04-04T06:33:17;103103.06;;;7.54;55.60
75692;BME280;64307;52.508;6.090;2023-04-04T06:35:43;103103.88;;;8.27;52.57
75692;BME280;64307;52.508;6.090;2023-04-04T06:38:08;103098.13;;;8.92;50.24
75692;BME280;64307;52.508;6.090;2023-04-04T06:40:33;103113.19;;;8.40;51.15
75692;BME280;64307;52.508;6.090;2023-04-04T06:42:59;103124.94;;;8.46;51.36
75692;BME280;64307;52.508;6.090;2023-04-04T06:45:26;103109.41;;;8.19;51.80
75692;BME280;64307;52.508;6.090;2023-04-04T06:47:52;103099.34;;;9.21;49.68
75692;BME280;64307;52.508;6.090;2023-04-04T06:50:19;103105.75;;;10.29;47.02
75692;BME280;64307;52.508;6.090;2023-04-04T06:52:45;103109.97;;;10.56;45.98
75692;BME280;64307;52.508;6.090;2023-04-04T06:55:10;103107.41;;;11.65;44.03
75692;BME280;64307;52.508;6.090;2023-04-04T06:57:37;103106.25;;;11.66;43.03
75692;BME280;64307;52.508;6.090;2023-04-04T07:00:03;103105.31;;;9.69;46.22
75692;BME280;64307;52.508;6.090;2023-04-04T07:02:28;103104.41;;;10.15;46.63
75692;BME280;64307;52.508;6.090;2023-04-04T07:04:53;103098.56;;;9.78;46.50
75692;BME280;64307;52.508;6.090;2023-04-04T07:07:19;103091.69;;;13.50;39.14
75692;BME280;64307;52.508;6.090;2023-04-04T07:09:44;103081.47;;;16.01;34.62
75692;BME280;64307;52.508;6.090;2023-04-04T07:12:10;103083.31;;;16.20;33.23
75692;BME280;64307;52.508;6.090;2023-04-04T07:14:35;103090.03;;;16.12;31.54
75692;BME280;64307;52.508;6.090;2023-04-04T07:17:01;103096.06;;;17.06;29.58
75692;BME280;64307;52.508;6.090;2023-04-04T07:19:26;103097.69;;;15.85;32.23
75692;BME280;64307;52.508;6.090;2023-04-04T07:21:53;103105.25;;;14.91;33.39
75692;BME280;64307;52.508;6.090;2023-04-04T07:24:19;103098.44;;;16.68;31.51
75692;BME280;64307;52.508;6.090;2023-04-04T07:26:45;103109.13;;;16.88;30.05
75692;BME280;64307;52.508;6.090;2023-04-04T07:29:10;103104.94;;;18.03;28.68
75692;BME280;64307;52.508;6.090;2023-04-04T07:31:35;103094.91;;;19.09;27.47
75692;BME280;64307;52.508;6.090;2023-04-04T07:34:02;103106.69;;;19.43;26.93
75692;BME280;64307;52.508;6.090;2023-04-04T07:36:28;103109.81;;;18.06;27.74
75692;BME280;64307;52.508;6.090;2023-04-04T07:38:53;103098.72;;;17.33;28.67
75692;BME280;64307;52.508;6.090;2023-04-04T07:41:19;103101.72;;;18.91;26.47
75692;BME280;64307;52.508;6.090;2023-04-04T07:43:45;103104.19;;;20.08;25.26
75692;BME280;64307;52.508;6.090;2023-04-04T07:46:10;103105.22;;;16.33;29.46
75692;BME280;64307;52.508;6.090;2023-04-04T07:48:36;103104.41;;;17.36;29.95
75692;BME280;64307;52.508;6.090;2023-04-04T07:51:02;103094.97;;;19.62;25.88
75692;BME280;64307;52.508;6.090;2023-04-04T07:53:28;103082.06;;;20.86;23.87
75692;BME280;64307;52.508;6.090;2023-04-04T07:55:54;103093.63;;;20.30;25.07
75692;BME280;64307;52.508;6.090;2023-04-04T07:58:19;103096.59;;;19.35;26.24
75692;BME280;64307;52.508;6.090;2023-04-04T08:00:46;103083.94;;;17.97;27.30
75692;BME280;64307;52.508;6.090;2023-04-04T08:03:11;103086.69;;;20.52;25.05
75692;BME280;64307;52.508;6.090;2023-04-04T08:05:37;103075.84;;;22.72;22.54
75692;BME280;64307;52.508;6.090;2023-04-04T08:08:02;103087.53;;;24.23;20.83
75692;BME280;64307;52.508;6.090;2023-04-04T08:10:27;103079.22;;;22.63;22.14
75692;BME280;64307;52.508;6.090;2023-04-04T08:12:53;103082.53;;;22.85;21.22
75692;BME280;64307;52.508;6.090;2023-04-04T08:15:18;103078.16;;;23.07;21.06
75692;BME280;64307;52.508;6.090;2023-04-04T08:17:44;103087.75;;;22.60;20.83
75692;BME280;64307;52.508;6.090;2023-04-04T08:20:11;103075.53;;;22.33;21.71
75692;BME280;64307;52.508;6.090;2023-04-04T08:22:38;103071.84;;;22.66;20.29
75692;BME280;64307;52.508;6.090;2023-04-04T08:25:04;103082.44;;;22.65;20.49
75692;BME280;64307;52.508;6.090;2023-04-04T08:27:29;103082.81;;;23.71;19.43
75692;BME280;64307;52.508;6.090;2023-04-04T08:29:55;103085.47;;;23.35;19.26
75692;BME280;64307;52.508;6.090;2023-04-04T08:32:20;103071.97;;;22.59;20.26
75692;BME280;64307;52.508;6.090;2023-04-04T08:34:48;103074.69;;;23.69;19.69
75692;BME280;64307;52.508;6.090;2023-04-04T08:37:13;103068.13;;;25.09;18.47
75692;BME280;64307;52.508;6.090;2023-04-04T08:39:39;103067.31;;;23.25;19.40
75692;BME280;64307;52.508;6.090;2023-04-04T08:42:05;103076.09;;;24.04;17.67
75692;BME280;64307;52.508;6.090;2023-04-04T08:44:32;103076.91;;;21.33;19.50
75692;BME280;64307;52.508;6.090;2023-04-04T08:47:00;103074.69;;;20.23;21.99
75692;BME280;64307;52.508;6.090;2023-04-04T08:49:28;103067.06;;;23.66;18.73
75692;BME280;64307;52.508;6.090;2023-04-04T08:51:55;103065.56;;;22.48;19.59
75692;BME280;64307;52.508;6.090;2023-04-04T08:54:24;103082.22;;;21.27;20.88
75692;BME280;64307;52.508;6.090;2023-04-04T08:56:51;103070.03;;;22.19;20.77
75692;BME280;64307;52.508;6.090;2023-04-04T08:59:16;103061.03;;;22.54;20.40
75692;BME280;64307;52.508;6.090;2023-04-04T09:01:43;103063.47;;;22.22;20.05
75692;BME280;64307;52.508;6.090;2023-04-04T09:04:09;103060.25;;;24.03;19.24
75692;BME280;64307;52.508;6.090;2023-04-04T09:06:36;103057.25;;;22.64;18.88
75692;BME280;64307;52.508;6.090;2023-04-04T09:09:02;103065.34;;;21.06;21.42
75692;BME280;64307;52.508;6.090;2023-04-04T09:11:30;103052.81;;;22.33;19.98
75692;BME280;64307;52.508;6.090;2023-04-04T09:13:56;103056.69;;;23.76;19.04
75692;BME280;64307;52.508;6.090;2023-04-04T09:16:23;103055.25;;;21.97;20.02
75692;BME280;64307;52.508;6.090;2023-04-04T09:18:50;103052.34;;;22.00;20.54
75692;BME280;64307;52.508;6.090;2023-04-04T09:21:18;103045.75;;;22.11;19.20
75692;BME280;64307;52.508;6.090;2023-04-04T09:23:44;103057.03;;;22.82;18.33
75692;BME280;64307;52.508;6.090;2023-04-04T09:26:10;103039.91;;;21.91;19.06
75692;BME280;64307;52.508;6.090;2023-04-04T09:28:37;103059.78;;;23.85;18.16
75692;BME280;64307;52.508;6.090;2023-04-04T09:31:06;103047.69;;;22.51;17.88
75692;BME280;64307;52.508;6.090;2023-04-04T09:33:31;103046.25;;;21.17;19.64
75692;BME280;64307;52.508;6.090;2023-04-04T09:36:01;103065.81;;;18.88;22.60
75692;BME280;64307;52.508;6.090;2023-04-04T09:38:28;103060.75;;;18.28;24.18
75692;BME280;64307;52.508;6.090;2023-04-04T09:40:54;103060.00;;;18.42;23.56
75692;BME280;64307;52.508;6.090;2023-04-04T09:43:21;103075.94;;;17.08;23.80
75692;BME280;64307;52.508;6.090;2023-04-04T09:45:49;103065.94;;;16.11;26.24
75692;BME280;64307;52.508;6.090;2023-04-04T09:48:29;103063.63;;;17.70;25.33
75692;BME280;64307;52.508;6.090;2023-04-04T09:50:56;103057.84;;;17.05;25.26
75692;BME280;64307;52.508;6.090;2023-04-04T09:53:25;103065.13;;;14.48;28.97
75692;BME280;64307;52.508;6.090;2023-04-04T09:55:52;103069.69;;;14.18;29.78
75692;BME280;64307;52.508;6.090;2023-04-04T09:58:23;103057.72;;;14.59;28.68
75692;BME280;64307;52.508;6.090;2023-04-04T10:00:55;103060.59;;;15.50;27.75
75692;BME280;64307;52.508;6.090;2023-04-04T10:03:22;103066.63;;;14.84;29.25
75692;BME280;64307;52.508;6.090;2023-04-04T10:05:55;103063.59;;;15.15;30.42
75692;BME280;64307;52.508;6.090;2023-04-04T10:08:22;103060.41;;;15.39;30.16
75692;BME280;64307;52.508;6.090;2023-04-04T10:10:51;103061.78;;;16.61;28.93
75692;BME280;64307;52.508;6.090;2023-04-04T10:13:29;103050.53;;;15.00;29.96
75692;BME280;64307;52.508;6.090;2023-04-04T10:15:56;103045.50;;;14.48;30.81
75692;BME280;64307;52.508;6.090;2023-04-04T10:18:34;103053.00;;;15.50;30.01
75692;BME280;64307;52.508;6.090;2023-04-04T10:21:04;103052.72;;;14.49;31.11
75692;BME280;64307;52.508;6.090;2023-04-04T10:23:34;103039.59;;;15.18;30.32
75692;BME280;64307;52.508;6.090;2023-04-04T10:26:01;103033.91;;;15.14;31.10
75692;BME280;64307;52.508;6.090;2023-04-04T10:28:27;103037.69;;;14.80;30.84
75692;BME280;64307;52.508;6.090;2023-04-04T10:31:05;103038.44;;;16.27;29.94
75692;BME280;64307;52.508;6.090;2023-04-04T10:36:11;103040.47;;;16.30;29.67
75692;BME280;64307;52.508;6.090;2023-04-04T10:38:42;103023.28;;;16.68;29.36
75692;BME280;64307;52.508;6.090;2023-04-04T10:41:09;103031.44;;;17.24;28.98
75692;BME280;64307;52.508;6.090;2023-04-04T10:43:39;103017.84;;;16.49;29.81
75692;BME280;64307;52.508;6.090;2023-04-04T10:46:15;103038.63;;;16.41;29.24
75692;BME280;64307;52.508;6.090;2023-04-04T10:48:42;103025.81;;;15.09;31.12
75692;BME280;64307;52.508;6.090;2023-04-04T10:51:10;103025.78;;;14.26;30.76
75692;BME280;64307;52.508;6.090;2023-04-04T10:53:37;103012.25;;;13.74;32.93
75692;BME280;64307;52.508;6.090;2023-04-04T10:56:03;103024.00;;;13.98;31.81
75692;BME280;64307;52.508;6.090;2023-04-04T10:58:29;103026.09;;;14.02;31.83
75692;BME280;64307;52.508;6.090;2023-04-04T11:00:55;103013.31;;;14.04;32.75
75692;BME280;64307;52.508;6.090;2023-04-04T11:03:23;102988.16;;;13.88;31.31
75692;BME280;64307;52.508;6.090;2023-04-04T11:05:49;102992.13;;;13.68;33.05
75692;BME280;64307;52.508;6.090;2023-04-04T11:08:22;103010.06;;;14.82;31.63
75692;BME280;64307;52.508;6.090;2023-04-04T11:10:52;103008.97;;;14.26;31.27
75692;BME280;64307;52.508;6.090;2023-04-04T11:13:32;103011.69;;;14.03;31.53
75692;BME280;64307;52.508;6.090;2023-04-04T11:16:04;103019.47;;;14.90;30.49
75692;BME280;64307;52.508;6.090;2023-04-04T11:21:02;103011.34;;;14.43;31.15
75692;BME280;64307;52.508;6.090;2023-04-04T11:26:18;102996.28;;;14.51;31.10
75692;BME280;64307;52.508;6.090;2023-04-04T11:29:02;102989.94;;;14.16;31.34
75692;BME280;64307;52.508;6.090;2023-04-04T11:31:39;102980.22;;;14.93;30.21
75692;BME280;64307;52.508;6.090;2023-04-04T11:34:08;102981.72;;;14.87;31.13
75692;BME280;64307;52.508;6.090;2023-04-04T11:39:02;102981.66;;;14.61;31.65
75692;BME280;64307;52.508;6.090;2023-04-04T11:41:47;102994.03;;;15.28;30.21
75692;BME280;64307;52.508;6.090;2023-04-04T11:44:14;102985.34;;;12.72;33.00
75692;BME280;64307;52.508;6.090;2023-04-04T11:46:41;102989.16;;;13.11;33.31
75692;BME280;64307;52.508;6.090;2023-04-04T11:49:09;102978.59;;;14.28;32.69
75692;BME280;64307;52.508;6.090;2023-04-04T11:51:35;102980.50;;;14.05;30.96
75692;BME280;64307;52.508;6.090;2023-04-04T11:54:02;102968.69;;;13.76;30.60
75692;BME280;64307;52.508;6.090;2023-04-04T11:56:27;102948.69;;;14.54;32.11
75692;BME280;64307;52.508;6.090;2023-04-04T11:58:57;102961.31;;;14.90;31.89
75692;BME280;64307;52.508;6.090;2023-04-04T12:01:23;102969.63;;;15.06;31.86
75692;BME280;64307;52.508;6.090;2023-04-04T12:03:48;102947.63;;;14.85;32.88
75692;BME280;64307;52.508;6.090;2023-04-04T12:06:13;102949.16;;;14.18;31.72
75692;BME280;64307;52.508;6.090;2023-04-04T12:08:41;102945.13;;;14.16;32.93
75692;BME280;64307;52.508;6.090;2023-04-04T12:11:07;102929.06;;;13.05;33.88
75692;BME280;64307;52.508;6.090;2023-04-04T12:13:41;102937.47;;;12.15;35.86
75692;BME280;64307;52.508;6.090;2023-04-04T12:16:07;102938.75;;;13.42;34.49
75692;BME280;64307;52.508;6.090;2023-04-04T12:18:35;102923.72;;;13.69;33.38
75692;BME280;64307;52.508;6.090;2023-04-04T12:21:00;102936.03;;;13.30;34.31
75692;BME280;64307;52.508;6.090;2023-04-04T12:23:26;102920.56;;;13.71;32.87
75692;BME280;64307;52.508;6.090;2023-04-04T12:25:55;102942.63;;;12.01;35.28
75692;BME280;64307;52.508;6.090;2023-04-04T12:28:21;102933.81;;;12.42;34.96
75692;BME280;64307;52.508;6.090;2023-04-04T12:30:48;102912.25;;;12.89;34.37
75692;BME280;64307;52.508;6.090;2023-04-04T12:33:13;102921.56;;;12.62;34.82
75692;BME280;64307;52.508;6.090;2023-04-04T12:35:38;102919.19;;;13.27;35.68
75692;BME280;64307;52.508;6.090;2023-04-04T12:38:05;102911.31;;;13.32;34.85
75692;BME280;64307;52.508;6.090;2023-04-04T12:40:36;102916.13;;;13.51;34.74
75692;BME280;64307;52.508;6.090;2023-04-04T12:43:04;102905.75;;;13.17;34.54
75692;BME280;64307;52.508;6.090;2023-04-04T12:45:29;102903.53;;;13.06;34.49
75692;BME280;64307;52.508;6.090;2023-04-04T12:47:55;102906.75;;;13.43;34.53
75692;BME280;64307;52.508;6.090;2023-04-04T12:50:23;102912.19;;;13.71;33.94
75692;BME280;64307;52.508;6.090;2023-04-04T12:52:51;102898.03;;;13.83;34.22
75692;BME280;64307;52.508;6.090;2023-04-04T12:55:22;102899.44;;;13.20;35.60
75692;BME280;64307;52.508;6.090;2023-04-04T12:57:48;102895.81;;;13.03;35.82
75692;BME280;64307;52.508;6.090;2023-04-04T13:00:14;102900.56;;;13.34;37.33
75692;BME280;64307;52.508;6.090;2023-04-04T13:02:43;102886.63;;;13.19;34.83